Time;durP1;ratioP1;P1;durP2;ratioP2;P2;SDS_P1;SDS_P2;PMS_P1;PMS_P2;Temp;Humidity;BMP_temperature;BMP_pressure;BME280_temperature;BME280_humidity;BME280_pressure;Samples;Min_cycle;Max_cycle;Signal;HPM_P1;HPM_P2
2021/09/06 00:00:39;;;;;;;;;16.00;14.25;;;;;24.96;41.57;101556.16;5020330;28;45508;-54
2021/09/06 00:03:04;;;;;;;;;13.25;13.25;;;;;24.95;42.13;101561.66;5019751;28;45455;-54
2021/09/06 00:05:30;;;;;;;;;17.75;15.00;;;;;24.91;41.65;101560.13;5008997;28;45491;-55
2021/09/06 00:07:55;;;;;;;;;15.00;14.75;;;;;24.88;42.08;101562.97;5001123;28;45297;-55
2021/09/06 00:10:20;;;;;;;;;18.00;17.25;;;;;24.86;42.36;101563.09;5000994;28;45493;-54
2021/09/06 00:12:47;;;;;;;;;18.25;14.50;;;;;24.84;42.32;101559.63;5002435;28;45409;-55
2021/09/06 00:15:13;;;;;;;;;15.25;14.00;;;;;24.81;41.99;101565.19;5002614;28;45277;-54
2021/09/06 00:17:38;;;;;;;;;16.00;15.50;;;;;24.77;42.21;101563.66;5001997;28;45262;-55
2021/09/06 00:20:05;;;;;;;;;16.75;14.75;;;;;24.76;42.36;101556.56;5002361;28;45316;-54
2021/09/06 00:22:31;;;;;;;;;17.00;16.00;;;;;24.74;42.00;101566.53;5002300;28;45420;-54
2021/09/06 00:24:56;;;;;;;;;15.50;15.50;;;;;24.72;42.23;101558.56;5001953;28;45199;-54
2021/09/06 00:27:22;;;;;;;;;15.50;13.75;;;;;24.71;42.40;101564.03;5019140;28;46267;-53
2021/09/06 00:29:47;;;;;;;;;17.00;15.00;;;;;24.68;42.25;101554.34;5022066;28;45202;-55
2021/09/06 00:32:12;;;;;;;;;14.75;14.00;;;;;24.66;42.14;101559.78;5005044;28;45259;-54
2021/09/06 00:34:37;;;;;;;;;15.75;15.25;;;;;24.65;42.41;101562.56;5002265;28;45159;-56
2021/09/06 00:37:03;;;;;;;;;17.50;16.00;;;;;24.64;42.26;101560.81;5002635;28;46122;-55
2021/09/06 00:39:28;;;;;;;;;16.25;15.25;;;;;24.62;42.45;101557.38;5001986;28;45179;-55
2021/09/06 00:41:53;;;;;;;;;17.75;17.75;;;;;24.62;42.41;101560.06;5001881;28;45321;-55
2021/09/06 00:44:19;;;;;;;;;17.25;15.25;;;;;24.61;42.48;101555.63;5001971;28;45438;-55
2021/09/06 00:46:47;;;;;;;;;16.25;14.50;;;;;24.60;42.44;101562.84;5016124;28;46833;-55
2021/09/06 00:49:13;;;;;;;;;14.75;14.75;;;;;24.59;42.58;101558.41;5012025;28;45361;-55
2021/09/06 00:51:39;;;;;;;;;15.50;14.50;;;;;24.59;42.23;101558.41;5001968;28;45408;-55
2021/09/06 00:54:04;;;;;;;;;16.75;15.75;;;;;24.57;42.64;101563.00;5010413;28;45235;-55
2021/09/06 00:56:30;;;;;;;;;16.75;15.25;;;;;24.57;42.34;101559.47;5017584;28;46310;-55
2021/09/06 00:58:56;;;;;;;;;14.00;14.00;;;;;24.56;42.71;101577.41;5001694;28;45336;-55
2021/09/06 01:01:22;;;;;;;;;13.25;13.25;;;;;24.54;42.56;101568.59;5001965;28;45474;-55
2021/09/06 01:03:47;;;;;;;;;16.00;15.00;;;;;24.54;42.82;101573.06;5009845;28;45466;-55
2021/09/06 01:06:13;;;;;;;;;12.50;12.50;;;;;24.52;42.73;101573.19;5014841;28;46129;-55
2021/09/06 01:08:39;;;;;;;;;13.75;12.50;;;;;24.52;42.25;101567.81;5001599;28;45377;-55
2021/09/06 01:11:04;;;;;;;;;16.00;14.00;;;;;24.49;42.82;101566.16;5001346;28;45290;-55
2021/09/06 01:13:29;;;;;;;;;16.00;16.00;;;;;24.52;42.42;101561.56;5001537;28;45459;-55
2021/09/06 01:15:55;;;;;;;;;14.75;14.75;;;;;24.50;42.87;101569.69;5001240;28;46300;-55
2021/09/06 01:18:20;;;;;;;;;14.00;14.00;;;;;24.50;42.39;101561.66;5010607;28;45328;-56
2021/09/06 01:20:46;;;;;;;;;13.75;13.50;;;;;24.44;42.49;101554.84;5017262;28;45324;-54
2021/09/06 01:23:11;;;;;;;;;15.25;14.25;;;;;24.49;42.56;101559.94;5001547;28;45379;-55
2021/09/06 01:25:37;;;;;;;;;14.50;13.25;;;;;24.49;42.63;101566.16;5030010;28;46295;-55
2021/09/06 01:28:02;;;;;;;;;14.50;14.50;;;;;24.48;42.60;101558.22;5020879;28;45254;-54
2021/09/06 01:30:28;;;;;;;;;14.50;13.75;;;;;24.47;42.64;101559.16;5019485;28;45418;-56
2021/09/06 01:32:54;;;;;;;;;14.75;12.25;;;;;24.47;42.56;101560.00;5001343;28;45558;-55
2021/09/06 01:35:19;;;;;;;;;14.00;13.50;;;;;24.46;42.41;101560.09;5012917;28;46326;-55
2021/09/06 01:37:45;;;;;;;;;17.25;13.75;;;;;24.46;42.62;101571.72;5001121;28;45378;-55
2021/09/06 01:40:10;;;;;;;;;15.25;14.25;;;;;24.46;42.56;101566.34;5000988;28;45290;-55
2021/09/06 01:42:36;;;;;;;;;17.00;17.00;;;;;24.43;42.77;101565.69;5001023;28;45536;-55
2021/09/06 01:45:04;;;;;;;;;19.50;16.75;;;;;24.44;42.91;101572.75;5029020;28;46172;-55
2021/09/06 01:47:30;;;;;;;;;15.00;14.00;;;;;24.42;42.60;101569.31;5012032;28;45277;-55
2021/09/06 01:49:57;;;;;;;;;20.75;18.75;;;;;24.41;42.74;101578.31;5000871;28;45311;-55
2021/09/06 01:52:23;;;;;;;;;15.75;15.00;;;;;24.39;42.57;101578.41;5001049;28;45447;-55
2021/09/06 01:54:48;;;;;;;;;17.50;17.00;;;;;24.37;42.93;101574.94;5014930;28;47390;-55
2021/09/06 01:57:14;;;;;;;;;18.25;18.25;;;;;24.35;42.63;101571.47;5011307;28;45323;-55
2021/09/06 01:59:39;;;;;;;;;19.00;18.50;;;;;24.34;42.42;101576.00;5000899;28;45816;-55
2021/09/06 02:02:04;;;;;;;;;16.50;15.00;;;;;24.33;43.17;101579.63;5006884;28;45471;-55
2021/09/06 02:04:30;;;;;;;;;21.50;18.50;;;;;24.32;42.74;101574.38;5032892;28;46162;-55
2021/09/06 02:06:55;;;;;;;;;19.50;17.50;;;;;24.29;42.61;101569.19;5011657;28;45293;-55
2021/09/06 02:09:21;;;;;;;;;17.00;16.75;;;;;24.30;43.13;101584.31;5000516;28;45266;-55
2021/09/06 02:11:46;;;;;;;;;20.25;17.00;;;;;24.28;43.23;101580.88;5000555;28;45404;-55
2021/09/06 02:14:11;;;;;;;;;22.50;18.50;;;;;24.24;42.80;101572.13;5000433;28;45385;-55
2021/09/06 02:16:37;;;;;;;;;17.75;17.75;;;;;24.24;43.14;101569.44;5000729;28;45413;-55
2021/09/06 02:19:02;;;;;;;;;18.00;17.00;;;;;24.23;43.09;101570.41;5029424;28;45997;-55
2021/09/06 02:21:27;;;;;;;;;17.75;16.75;;;;;24.21;43.13;101572.31;5015695;28;45239;-55
2021/09/06 02:23:53;;;;;;;;;17.50;17.00;;;;;24.20;42.91;101564.34;5013493;28;45206;-55
2021/09/06 02:26:18;;;;;;;;;15.50;14.75;;;;;24.19;43.10;101571.53;5000225;28;45196;-55
2021/09/06 02:28:46;;;;;;;;;16.75;14.75;;;;;24.18;43.09;101583.25;5012521;28;45280;-55
2021/09/06 02:31:11;;;;;;;;;21.75;15.50;;;;;24.15;43.16;101578.91;5018941;28;45264;-55
2021/09/06 02:33:38;;;;;;;;;15.00;15.00;;;;;24.11;43.26;101566.63;5019672;28;45336;-55
2021/09/06 02:36:04;;;;;;;;;17.00;16.00;;;;;24.12;43.45;101575.53;5001063;28;45332;-55
2021/09/06 02:38:29;;;;;;;;;17.50;16.25;;;;;24.13;43.37;101588.88;5000212;28;45323;-55
2021/09/06 02:40:54;;;;;;;;;19.25;16.50;;;;;24.12;43.37;101581.75;5000052;28;45234;-55
2021/09/06 02:43:20;;;;;;;;;18.75;17.50;;;;;24.10;43.70;101583.69;5000051;28;46468;-55
2021/09/06 02:45:45;;;;;;;;;17.75;16.00;;;;;24.09;43.60;101581.09;5000158;28;45394;-55
2021/09/06 02:48:10;;;;;;;;;15.50;15.00;;;;;24.09;43.51;101589.16;5000412;28;45229;-55
2021/09/06 02:50:36;;;;;;;;;17.00;15.75;;;;;24.05;43.61;101588.47;5000161;28;45495;-55
2021/09/06 02:53:01;;;;;;;;;16.25;14.25;;;;;24.06;43.44;101589.31;4999999;28;45427;-55
2021/09/06 02:55:27;;;;;;;;;17.75;16.75;;;;;24.04;43.46;101588.53;4999765;28;45405;-55
2021/09/06 02:57:52;;;;;;;;;15.25;15.25;;;;;24.04;43.61;101601.94;4999963;28;45501;-55
2021/09/06 03:00:18;;;;;;;;;18.75;17.00;;;;;24.01;43.61;101593.13;5000078;28;45301;-54
2021/09/06 03:02:43;;;;;;;;;17.50;16.75;;;;;24.01;43.76;101601.19;5011064;28;46041;-54
2021/09/06 03:05:09;;;;;;;;;16.50;15.75;;;;;23.99;43.72;101596.88;5014524;28;45627;-55
2021/09/06 03:07:34;;;;;;;;;18.00;15.00;;;;;23.98;43.67;101592.44;5017018;28;45460;-54
2021/09/06 03:10:00;;;;;;;;;16.00;15.25;;;;;23.96;43.83;101589.84;5018051;28;45385;-55
2021/09/06 03:12:25;;;;;;;;;17.75;17.75;;;;;23.94;43.83;101591.75;5018403;28;46160;-54
2021/09/06 03:14:50;;;;;;;;;18.75;15.75;;;;;23.92;43.56;101590.09;5018486;28;45449;-55
2021/09/06 03:17:16;;;;;;;;;19.50;16.75;;;;;23.91;43.79;101593.72;5018808;28;45508;-55
2021/09/06 03:19:41;;;;;;;;;22.25;20.50;;;;;23.86;43.78;101584.13;5022246;28;46167;-55
2021/09/06 03:22:07;;;;;;;;;20.00;18.25;;;;;23.84;43.96;101591.38;5021754;28;45827;-55
2021/09/06 03:24:32;;;;;;;;;20.75;18.75;;;;;23.84;43.86;101583.31;5022146;28;45380;-57
2021/09/06 03:26:57;;;;;;;;;18.00;18.00;;;;;23.84;44.06;101585.16;5021836;28;45557;-54
2021/09/06 03:29:23;;;;;;;;;15.75;15.50;;;;;23.82;43.75;101587.03;5022024;28;45498;-55
2021/09/06 03:31:48;;;;;;;;;16.25;16.25;;;;;23.83;43.80;101594.16;5021747;28;45396;-55
2021/09/06 03:34:13;;;;;;;;;20.00;18.50;;;;;23.81;43.79;101590.69;5020712;28;45474;-55
2021/09/06 03:36:39;;;;;;;;;20.00;18.00;;;;;23.79;44.14;101589.91;5008466;28;45374;-54
2021/09/06 03:39:04;;;;;;;;;18.75;17.75;;;;;23.77;43.85;101590.00;5013442;28;46929;-52
2021/09/06 03:41:31;;;;;;;;;36.75;33.00;;;;;23.76;44.01;101595.44;5028306;28;46090;-54
2021/09/06 03:43:56;;;;;;;;;48.25;37.00;;;;;23.75;44.08;101588.34;5003472;28;45142;-55
2021/09/06 03:46:21;;;;;;;;;26.25;25.00;;;;;23.71;44.54;101587.69;5003100;28;45529;-55
2021/09/06 03:48:47;;;;;;;;;20.75;19.25;;;;;23.68;44.08;101583.34;5002678;28;45559;-55
2021/09/06 03:51:12;;;;;;;;;20.25;17.25;;;;;23.68;43.86;101591.41;5002780;28;46295;-55
2021/09/06 03:53:37;;;;;;;;;21.75;18.75;;;;;23.66;44.28;101576.31;5014828;28;45231;-55
2021/09/06 03:56:03;;;;;;;;;20.75;19.00;;;;;23.67;44.07;101588.78;5014782;28;45741;-55
2021/09/06 03:58:28;;;;;;;;;18.00;17.00;;;;;23.65;44.28;101590.69;5003556;28;45483;-55
2021/09/06 04:00:54;;;;;;;;;21.00;19.25;;;;;23.60;43.91;101585.59;5002756;28;46011;-53
2021/09/06 04:03:19;;;;;;;;;20.50;19.25;;;;;23.61;44.32;101583.75;5018680;28;45500;-54
2021/09/06 04:05:44;;;;;;;;;20.75;18.50;;;;;23.59;44.21;101583.84;5010610;28;45313;-55
2021/09/06 04:08:10;;;;;;;;;18.25;17.50;;;;;23.58;44.35;101587.47;5002377;28;45503;-55
2021/09/06 04:10:35;;;;;;;;;19.75;18.00;;;;;23.58;44.43;101586.63;5002302;28;45431;-54
2021/09/06 04:13:01;;;;;;;;;16.50;16.50;;;;;23.56;44.28;101586.72;5002165;28;45348;-55
2021/09/06 04:15:26;;;;;;;;;23.50;22.50;;;;;23.56;44.39;101591.19;5013364;28;45319;-55
2021/09/06 04:17:52;;;;;;;;;21.50;18.00;;;;;23.53;44.47;101589.56;5016437;28;45620;-55
2021/09/06 04:20:17;;;;;;;;;47.75;38.00;;;;;23.48;44.61;101587.16;5002183;28;46146;-55
2021/09/06 04:22:43;;;;;;;;;50.75;42.75;;;;;23.50;44.33;101589.72;5019760;28;45697;-54
2021/09/06 04:25:09;;;;;;;;;36.25;32.25;;;;;23.49;44.36;101588.84;5009590;28;45369;-55
2021/09/06 04:27:36;;;;;;;;;28.50;26.50;;;;;23.48;44.80;101589.81;5004225;28;45501;-54
2021/09/06 04:30:04;;;;;;;;;26.00;24.75;;;;;23.45;44.57;101591.81;5022001;28;46191;-54
2021/09/06 04:32:29;;;;;;;;;8.00;6.25;;;;;23.47;44.97;101597.94;5003370;28;45425;-54
2021/09/06 04:34:55;;;;;;;;;24.75;23.25;;;;;23.46;44.90;101598.88;5002171;28;45290;-54
2021/09/06 04:37:20;;;;;;;;;24.50;23.75;;;;;23.44;44.74;101607.00;5002685;28;45235;-55
2021/09/06 04:39:46;;;;;;;;;21.00;20.75;;;;;23.43;44.84;101601.75;5001763;28;45889;-54
2021/09/06 04:42:11;;;;;;;;;20.25;19.00;;;;;23.43;44.76;101609.78;5001799;28;45372;-55
2021/09/06 04:44:36;;;;;;;;;24.75;23.50;;;;;23.42;44.85;101608.06;5002124;28;45355;-55
2021/09/06 04:47:02;;;;;;;;;24.75;24.75;;;;;23.40;44.71;101616.19;5001732;28;45320;-55
2021/09/06 04:49:27;;;;;;;;;21.75;21.50;;;;;23.39;44.98;101617.13;5001857;28;46196;-54
2021/09/06 04:51:53;;;;;;;;;23.75;20.25;;;;;23.38;44.96;101623.44;5018303;28;45556;-54
2021/09/06 04:54:19;;;;;;;;;23.25;20.50;;;;;23.36;45.16;101623.53;5010346;28;45298;-54
2021/09/06 04:56:45;;;;;;;;;25.25;23.25;;;;;23.34;45.18;101625.41;5001327;28;45367;-55
2021/09/06 04:59:11;;;;;;;;;23.75;21.00;;;;;23.33;44.94;101625.50;5001853;28;45315;-54
2021/09/06 05:01:36;;;;;;;;;24.00;22.25;;;;;23.30;45.00;101621.19;5003726;28;45218;-54
2021/09/06 05:04:02;;;;;;;;;25.25;24.25;;;;;23.28;45.08;101628.47;5021766;28;45372;-55
2021/09/06 05:06:28;;;;;;;;;24.00;23.00;;;;;23.26;45.28;101627.66;5002618;28;45368;-56
2021/09/06 05:08:53;;;;;;;;;24.00;21.50;;;;;23.24;45.61;101634.91;5007399;28;45286;-57
2021/09/06 05:11:19;;;;;;;;;27.25;26.00;;;;;23.23;45.04;101633.19;5000318;28;45390;-54
2021/09/06 05:13:44;;;;;;;;;27.50;24.75;;;;;23.22;45.26;101631.47;4999082;28;45445;-58
2021/09/06 05:16:10;;;;;;;;;24.25;22.75;;;;;23.22;45.18;101628.78;5001030;28;45269;-49
2021/09/06 05:18:35;;;;;;;;;24.25;22.75;;;;;23.19;45.42;101635.19;5001294;28;45451;-54
2021/09/06 05:21:02;;;;;;;;;23.75;22.50;;;;;23.18;45.45;101637.91;5001065;28;45306;-49
2021/09/06 05:23:27;;;;;;;;;24.25;21.25;;;;;23.16;45.29;101646.06;5001642;28;45413;-50
2021/09/06 05:25:53;;;;;;;;;28.50;23.50;;;;;23.12;45.78;101644.47;5000685;28;45314;-51
2021/09/06 05:28:19;;;;;;;;;31.75;28.25;;;;;23.13;45.57;101656.03;5009675;28;46945;-51
2021/09/06 05:30:45;;;;;;;;;26.50;26.50;;;;;23.11;45.33;101660.63;5016817;28;45245;-51
2021/09/06 05:33:10;;;;;;;;;23.00;20.75;;;;;23.09;45.52;101659.84;5001386;28;45785;-46
2021/09/06 05:35:35;;;;;;;;;28.50;24.75;;;;;23.06;45.75;101660.84;5001690;28;45364;-47
2021/09/06 05:38:01;;;;;;;;;26.25;23.00;;;;;23.02;45.47;101664.66;5007269;28;45867;-52
2021/09/06 05:40:27;;;;;;;;;25.50;21.75;;;;;23.03;45.68;101669.03;4998540;28;45434;-48
2021/09/06 05:42:52;;;;;;;;;23.75;22.50;;;;;22.98;45.72;101658.59;5001164;28;45232;-48
2021/09/06 05:45:18;;;;;;;;;27.75;24.50;;;;;22.97;45.85;101675.59;5000673;28;45245;-49
2021/09/06 05:47:43;;;;;;;;;27.00;23.50;;;;;22.95;45.87;101677.50;5000939;28;45187;-45
2021/09/06 05:50:10;;;;;;;;;27.50;24.25;;;;;22.94;46.02;101683.78;5000724;28;45216;-44
2021/09/06 05:52:35;;;;;;;;;26.25;25.75;;;;;22.92;45.88;101687.50;5001097;28;45329;-45
2021/09/06 05:55:00;;;;;;;;;26.25;24.00;;;;;22.92;45.76;101692.84;5000232;28;45340;-47
2021/09/06 05:57:26;;;;;;;;;44.50;36.00;;;;;22.88;46.08;101692.16;5000583;28;45449;-45
2021/09/06 05:59:51;;;;;;;;;35.75;29.75;;;;;22.85;46.06;101697.66;5000589;28;45321;-44
2021/09/06 06:02:17;;;;;;;;;27.25;25.50;;;;;22.83;45.89;101700.44;5008550;28;45463;-46
2021/09/06 06:04:43;;;;;;;;;29.75;26.75;;;;;22.82;46.15;101697.84;5015746;28;45340;-43
2021/09/06 06:07:08;;;;;;;;;25.25;25.25;;;;;22.81;46.36;101702.31;5000477;28;46173;-44
2021/09/06 06:09:33;;;;;;;;;28.00;26.75;;;;;22.82;46.54;101703.19;5031275;28;45474;-46
2021/09/06 06:11:59;;;;;;;;;31.50;29.25;;;;;22.81;46.27;101701.47;5009133;28;45767;-45
2021/09/06 06:14:24;;;;;;;;;29.75;26.00;;;;;22.81;46.61;101706.81;5012478;28;45295;-44
2021/09/06 06:16:50;;;;;;;;;28.00;24.75;;;;;22.80;46.34;101705.94;5011902;28;46116;-41
2021/09/06 06:19:16;;;;;;;;;29.50;27.50;;;;;22.82;46.48;101708.56;5002460;28;45879;-44
2021/09/06 06:21:41;;;;;;;;;24.75;23.75;;;;;22.81;45.86;101710.34;5000490;28;45171;-45
2021/09/06 06:24:07;;;;;;;;;23.75;23.50;;;;;22.80;46.36;101715.78;5000069;28;45167;-44
2021/09/06 06:26:32;;;;;;;;;25.50;23.00;;;;;22.81;46.56;101718.38;5000426;28;46281;-42
2021/09/06 06:28:58;;;;;;;;;28.75;27.75;;;;;22.82;46.33;101714.78;5014018;28;45344;-43
2021/09/06 06:31:24;;;;;;;;;27.75;25.00;;;;;22.83;46.15;101716.50;5011310;28;45468;-43
2021/09/06 06:33:49;;;;;;;;;25.25;23.25;;;;;22.84;46.60;101712.00;5000266;28;45301;-44
2021/09/06 06:36:15;;;;;;;;;26.25;26.00;;;;;22.86;46.40;101715.47;5000967;28;45357;-44
2021/09/06 06:38:41;;;;;;;;;30.00;27.00;;;;;22.86;46.41;101710.97;5000112;28;45357;-47
2021/09/06 06:41:06;;;;;;;;;28.50;27.50;;;;;22.88;46.31;101718.97;5000127;28;45473;-44
2021/09/06 06:43:32;;;;;;;;;25.75;25.25;;;;;22.85;46.66;101722.63;5010985;28;45560;-46
2021/09/06 06:45:57;;;;;;;;;28.25;24.00;;;;;22.88;46.56;101724.31;4999939;28;45318;-43
2021/09/06 06:48:23;;;;;;;;;27.50;25.25;;;;;22.89;46.07;101728.72;5000001;28;45314;-43
2021/09/06 06:50:49;;;;;;;;;29.75;24.25;;;;;22.89;46.42;101726.91;5000020;28;45301;-43
2021/09/06 06:53:15;;;;;;;;;24.00;19.75;;;;;22.90;46.30;101733.13;5000071;28;46431;-44
2021/09/06 06:55:40;;;;;;;;;20.00;20.00;;;;;22.88;46.35;101721.66;4999676;28;45998;-45
2021/09/06 06:58:06;;;;;;;;;22.50;21.50;;;;;22.91;46.37;101729.50;4999716;28;45256;-44
2021/09/06 07:00:31;;;;;;;;;23.50;22.50;;;;;22.92;46.03;101728.56;5000052;28;45502;-42
2021/09/06 07:02:56;;;;;;;;;22.75;22.25;;;;;22.92;46.51;101731.25;5012900;28;45518;-43
2021/09/06 07:05:22;;;;;;;;;24.75;22.25;;;;;22.92;46.20;101735.72;5010307;28;46076;-43
2021/09/06 07:07:47;;;;;;;;;23.50;21.25;;;;;22.92;46.46;101728.56;4999566;28;45246;-43
2021/09/06 07:10:12;;;;;;;;;24.25;22.25;;;;;22.97;46.35;101736.41;4999785;28;45318;-44
2021/09/06 07:12:38;;;;;;;;;27.75;24.25;;;;;22.97;46.64;101739.94;4999597;28;45612;-44
2021/09/06 07:15:05;;;;;;;;;29.75;27.00;;;;;22.98;46.33;101744.34;4999684;28;45266;-47
2021/09/06 07:17:31;;;;;;;;;26.75;22.50;;;;;22.99;46.63;101743.41;4999345;28;45334;-46
2021/09/06 07:19:56;;;;;;;;;24.25;24.25;;;;;23.00;46.59;101738.91;4999642;28;45270;-46
2021/09/06 07:22:22;;;;;;;;;27.75;23.75;;;;;23.00;46.28;101738.91;4999482;28;45402;-47
2021/09/06 07:24:47;;;;;;;;;25.25;21.75;;;;;23.03;46.71;101744.97;4999514;28;45325;-43
2021/09/06 07:27:13;;;;;;;;;22.50;22.50;;;;;23.07;46.42;101745.69;4999259;28;45426;-42
2021/09/06 07:29:38;;;;;;;;;25.75;21.75;;;;;23.10;46.64;101750.03;5019364;28;45311;-43
2021/09/06 07:32:04;;;;;;;;;25.25;23.25;;;;;23.12;46.47;101754.38;5004434;28;45354;-46
2021/09/06 07:34:35;;;;;;;;;23.00;22.75;;;;;23.15;46.60;101754.22;4999240;28;46220;-47
2021/09/06 07:37:02;;;;;;;;;21.75;20.25;;;;;23.19;46.85;101758.50;5000055;28;45315;-44
2021/09/06 07:39:28;;;;;;;;;22.50;21.25;;;;;23.20;46.54;101745.94;4999243;28;45358;-44
2021/09/06 07:41:53;;;;;;;;;22.50;21.50;;;;;23.20;46.57;101746.81;4999022;28;45249;-44
2021/09/06 07:44:19;;;;;;;;;26.25;22.25;;;;;23.27;46.48;101752.75;4999395;28;45456;-45
2021/09/06 07:46:44;;;;;;;;;24.25;22.25;;;;;23.33;46.46;101762.25;4999115;28;45234;-44
2021/09/06 07:49:10;;;;;;;;;26.25;23.00;;;;;23.35;46.50;101755.88;4999536;28;45346;-47
2021/09/06 07:51:35;;;;;;;;;22.75;20.50;;;;;23.37;46.59;101762.03;4999441;28;46508;-46
2021/09/06 07:54:01;;;;;;;;;25.25;22.25;;;;;23.42;46.54;101769.84;5003805;28;46307;-46
2021/09/06 07:56:28;;;;;;;;;23.00;20.25;;;;;23.45;46.43;101766.13;4999228;28;45309;-44
2021/09/06 07:58:53;;;;;;;;;24.50;19.50;;;;;23.49;46.34;101762.34;4999152;28;45214;-42
2021/09/06 08:01:18;;;;;;;;;20.50;19.25;;;;;23.53;46.39;101770.16;4999043;28;45210;-45
2021/09/06 08:03:44;;;;;;;;;21.25;19.50;;;;;23.58;46.46;101769.88;5020374;28;45411;-43
2021/09/06 08:06:09;;;;;;;;;20.75;18.75;;;;;23.63;46.55;101775.88;5006498;28;45463;-44
2021/09/06 08:08:34;;;;;;;;;24.25;22.00;;;;;23.68;46.55;101771.16;5002584;28;45436;-46
2021/09/06 08:11:00;;;;;;;;;25.25;24.25;;;;;23.73;46.51;101781.63;5002059;28;45277;-45
2021/09/06 08:13:25;;;;;;;;;23.25;20.25;;;;;23.77;46.48;101777.84;5002219;28;45389;-44
2021/09/06 08:15:50;;;;;;;;;21.25;19.50;;;;;23.83;46.44;101782.00;5017430;28;45685;-44
2021/09/06 08:18:16;;;;;;;;;20.25;20.25;;;;;23.86;46.58;101779.13;5002468;28;45430;-45
2021/09/06 08:20:42;;;;;;;;;21.00;20.50;;;;;23.91;46.65;101779.81;5002100;28;45567;-46
2021/09/06 08:23:08;;;;;;;;;27.00;19.25;;;;;23.99;46.39;101788.31;5002043;28;46158;-44
2021/09/06 08:25:33;;;;;;;;;24.00;22.00;;;;;24.04;46.30;101781.81;5001662;28;45420;-43
2021/09/06 08:27:58;;;;;;;;;22.75;18.25;;;;;24.09;46.48;101788.66;5008082;28;45395;-45
2021/09/06 08:30:24;;;;;;;;;19.75;19.75;;;;;24.15;46.17;101784.75;5021279;28;45566;-46
2021/09/06 08:32:49;;;;;;;;;20.50;18.25;;;;;24.21;46.05;101781.75;5002070;28;46030;-44
2021/09/06 08:35:15;;;;;;;;;20.75;19.25;;;;;24.27;46.21;101784.09;5002623;28;45279;-44
2021/09/06 08:37:42;;;;;;;;;17.50;17.50;;;;;24.33;46.04;101782.91;5002151;28;45246;-45
2021/09/06 08:40:10;;;;;;;;;20.50;18.25;;;;;24.41;46.18;101786.00;5001513;28;45464;-47
2021/09/06 08:42:37;;;;;;;;;17.75;17.25;;;;;24.47;46.09;101782.09;5001774;28;45440;-44
2021/09/06 08:45:04;;;;;;;;;24.50;18.75;;;;;24.54;46.12;101780.81;5001724;28;45468;-43
2021/09/06 08:47:29;;;;;;;;;14.50;13.25;;;;;24.61;45.79;101782.19;5001829;28;45262;-43
2021/09/06 08:49:54;;;;;;;;;19.00;16.00;;;;;24.69;45.93;101786.28;5005009;28;45225;-44
2021/09/06 08:52:20;;;;;;;;;18.75;17.75;;;;;24.77;45.98;101789.41;5032981;28;45318;-44
2021/09/06 08:54:45;;;;;;;;;20.50;17.00;;;;;24.85;45.98;101789.81;5005971;28;45436;-47
2021/09/06 08:57:11;;;;;;;;;15.25;15.25;;;;;24.93;45.86;101779.50;5001793;28;45451;-47
2021/09/06 08:59:41;;;;;;;;;17.50;16.50;;;;;25.02;46.03;101782.56;5001643;28;45235;-44
2021/09/06 09:02:06;;;;;;;;;17.25;16.25;;;;;25.09;45.36;101787.53;5007758;28;47076;-44
2021/09/06 09:04:32;;;;;;;;;15.50;15.50;;;;;25.19;45.38;101792.34;5018243;28;45265;-43
2021/09/06 09:06:59;;;;;;;;;17.50;16.75;;;;;25.28;45.73;101783.72;5001650;28;45435;-42
2021/09/06 09:09:32;;;;;;;;;16.50;13.00;;;;;25.38;45.19;101784.91;5001224;28;45262;-45
2021/09/06 09:12:06;;;;;;;;;14.00;14.00;;;;;25.48;45.45;101793.31;5001226;28;47209;-43
2021/09/06 09:14:36;;;;;;;;;14.25;13.25;;;;;25.58;45.35;101790.91;5001135;28;45522;-44
2021/09/06 09:17:03;;;;;;;;;16.00;15.00;;;;;25.68;45.32;101789.38;5001504;28;45158;-45
2021/09/06 09:19:28;;;;;;;;;16.75;15.75;;;;;25.78;44.89;101787.84;5013114;28;45336;-47
2021/09/06 09:21:59;;;;;;;;;13.75;12.25;;;;;25.89;44.81;101778.25;5013560;28;46882;-44
2021/09/06 09:24:25;;;;;;;;;10.75;10.75;;;;;26.00;44.86;101781.16;5001219;28;45316;-47
2021/09/06 09:26:58;;;;;;;;;15.25;12.75;;;;;26.11;44.30;101777.78;5001236;28;45423;-46
2021/09/06 09:29:24;;;;;;;;;13.25;12.25;;;;;26.23;44.76;101771.63;5018955;28;45397;-49
2021/09/06 09:31:51;;;;;;;;;11.25;11.25;;;;;26.36;44.03;101781.59;5008127;28;46257;-44
2021/09/06 09:34:17;;;;;;;;;15.25;14.25;;;;;26.47;44.55;101786.31;5001154;28;45248;-46
2021/09/06 09:36:43;;;;;;;;;13.00;12.00;;;;;26.57;44.23;101782.03;5002016;28;45247;-48
2021/09/06 09:39:18;;;;;;;;;13.25;12.50;;;;;26.71;44.18;101781.13;5019044;28;45527;-48
2021/09/06 09:41:49;;;;;;;;;14.25;12.00;;;;;26.83;43.75;101785.72;5006298;28;46159;-45
2021/09/06 09:44:25;;;;;;;;;15.75;12.75;;;;;26.96;43.60;101779.50;5001080;28;45389;-46
2021/09/06 09:46:53;;;;;;;;;14.00;12.75;;;;;27.08;43.34;101781.34;5000745;28;45231;-48
2021/09/06 09:49:19;;;;;;;;;15.50;13.75;;;;;27.21;43.63;101773.31;5000920;28;45314;-48
2021/09/06 09:51:44;;;;;;;;;13.50;13.00;;;;;27.35;43.63;101778.59;5000566;28;46415;-46
2021/09/06 09:54:10;;;;;;;;;13.50;11.50;;;;;27.49;43.34;101785.75;5000585;28;45354;-47
2021/09/06 09:56:36;;;;;;;;;13.25;12.25;;;;;27.63;43.21;101783.94;5000760;28;45876;-48
2021/09/06 09:59:02;;;;;;;;;14.25;13.00;;;;;27.74;42.78;101779.50;5000699;28;45507;-46
2021/09/06 10:01:30;;;;;;;;;14.50;12.75;;;;;27.87;42.60;101779.50;5001563;28;45553;-44
2021/09/06 10:03:59;;;;;;;;;13.75;12.25;;;;;28.02;42.76;101774.81;5019274;28;45384;-48
2021/09/06 10:06:26;;;;;;;;;13.75;12.50;;;;;28.15;42.55;101779.38;5018965;28;45408;-44
2021/09/06 10:08:52;;;;;;;;;12.25;12.25;;;;;28.30;42.66;101780.09;5008412;28;45347;-45
2021/09/06 10:11:18;;;;;;;;;15.75;15.00;;;;;28.44;42.37;101779.94;5000352;28;45323;-45
2021/09/06 10:13:43;;;;;;;;;12.75;11.75;;;;;28.59;42.01;101780.66;4999126;28;45323;-44
2021/09/06 10:16:08;;;;;;;;;10.75;10.75;;;;;28.73;42.50;101778.78;5000490;28;45501;-44
2021/09/06 10:18:39;;;;;;;;;12.50;12.25;;;;;28.87;42.04;101781.31;5000636;28;45420;-47
2021/09/06 10:21:16;;;;;;;;;13.75;13.00;;;;;29.02;42.28;101771.16;5000076;28;45325;-44
2021/09/06 10:23:51;;;;;;;;;13.75;13.75;;;;;29.15;41.94;101777.34;5000094;28;45677;-46
2021/09/06 10:26:16;;;;;;;;;12.50;12.50;;;;;29.31;41.65;101771.63;4999871;28;45374;-45
2021/09/06 10:28:42;;;;;;;;;15.00;12.25;;;;;29.46;41.68;101772.28;5011814;28;45296;-45
2021/09/06 10:31:18;;;;;;;;;11.25;11.25;;;;;29.61;41.67;101764.78;5013398;28;46103;-45
2021/09/06 10:33:44;;;;;;;;;13.00;13.00;;;;;29.76;41.35;101776.25;5000212;28;45413;-44
2021/09/06 10:36:10;;;;;;;;;16.00;15.75;;;;;29.92;41.09;101773.19;5001246;28;45499;-45
2021/09/06 10:38:37;;;;;;;;;12.75;11.25;;;;;30.08;41.35;101770.09;5000183;28;45397;-44
2021/09/06 10:41:09;;;;;;;;;14.00;11.50;;;;;30.25;40.80;101766.03;4999811;28;46450;-46
2021/09/06 10:43:47;;;;;;;;;13.00;12.75;;;;;30.44;41.37;101762.66;5029333;28;45382;-45
2021/09/06 10:46:13;;;;;;;;;12.75;11.50;;;;;30.60;41.31;101766.81;5008587;28;45222;-47
2021/09/06 10:48:39;;;;;;;;;13.50;13.50;;;;;30.78;40.89;101762.56;4999947;28;45293;-48
2021/09/06 10:51:04;;;;;;;;;14.25;14.25;;;;;30.98;41.13;101764.56;5000027;28;46075;-47
2021/09/06 10:53:30;;;;;;;;;15.75;15.75;;;;;31.19;40.70;101765.47;4999876;28;45353;-45
2021/09/06 10:55:57;;;;;;;;;11.25;11.25;;;;;31.42;40.80;101749.91;4999840;28;45271;-45
2021/09/06 10:58:26;;;;;;;;;12.00;11.00;;;;;31.72;40.71;101750.06;5016980;28;45346;-48
2021/09/06 11:00:55;;;;;;;;;13.25;11.00;;;;;32.02;40.77;101760.03;5014359;28;46182;-44
2021/09/06 11:03:24;;;;;;;;;14.25;13.25;;;;;32.34;41.25;101756.28;5018486;28;45499;-46